Time;durP1;ratioP1;P1;durP2;ratioP2;P2;SDS_P1;SDS_P2;PMS_P1;PMS_P2;Temp;Humidity;BMP_temperature;BMP_pressure;BME280_temperature;BME280_humidity;BME280_pressure;Samples;Min_cycle;Max_cycle;Signal;HPM_P1;HPM_P2
2023/06/09 00:00:46;;;;;;;;;;;;;;;22.44;56.36;100645.97;7401872;19;1892;-47
2023/06/09 00:03:16;;;;;;;;;;;;;;;22.46;55.98;100678.13;7400218;19;1281;-51
2023/06/09 00:05:44;;;;;;;;;;;;;;;22.29;56.48;100654.81;7400830;19;1276;-46
2023/06/09 00:08:12;;;;;;;;;;;;;;;22.38;56.47;100648.44;7401340;19;1530;-46
2023/06/09 00:10:41;;;;;;;;;;;;;;;22.42;56.39;100639.91;7402567;19;1201;-46
2023/06/09 00:13:09;;;;;;;;;;;;;;;22.38;56.08;100632.28;7401262;19;1556;-46
2023/06/09 00:15:38;;;;;;;;;;;;;;;22.40;56.11;100625.75;7400936;19;1465;-47
2023/06/09 00:18:09;;;;;;;;;;;;;;;22.41;56.02;100616.66;7400215;19;1857;-46
2023/06/09 00:20:38;;;;;;;;;;;;;;;22.47;56.17;100620.56;7400640;19;1543;-46
2023/06/09 00:23:07;;;;;;;;;;;;;;;22.42;56.22;100629.13;7399897;19;1285;-46
2023/06/09 00:25:36;;;;;;;;;;;;;;;22.35;56.13;100616.47;7397788;19;1448;-46
2023/06/09 00:28:04;;;;;;;;;;;;;;;22.40;56.08;100619.50;7398594;19;1454;-46
2023/06/09 00:30:35;;;;;;;;;;;;;;;22.40;56.30;100619.50;7399398;19;1825;-46
2023/06/09 00:33:03;;;;;;;;;;;;;;;22.41;55.89;100605.88;7401734;19;1707;-46
2023/06/09 00:35:34;;;;;;;;;;;;;;;22.37;56.19;100614.44;7402369;19;1388;-46
2023/06/09 00:38:03;;;;;;;;;;;;;;;22.42;55.94;100612.09;7401316;19;1865;-47
2023/06/09 00:40:31;;;;;;;;;;;;;;;22.37;56.11;100619.84;7400671;19;1589;-46
2023/06/09 00:42:59;;;;;;;;;;;;;;;22.21;56.64;100613.31;7400157;19;1874;-46
2023/06/09 00:45:27;;;;;;;;;;;;;;;22.22;56.73;100606.94;7400660;19;1718;-46
2023/06/09 00:47:57;;;;;;;;;;;;;;;22.22;56.56;100615.03;7400300;19;1404;-46
2023/06/09 00:50:25;;;;;;;;;;;;;;;22.26;56.56;100630.88;7399872;19;1818;-46
2023/06/09 00:52:57;;;;;;;;;;;;;;;22.35;56.17;100632.63;7400192;19;1592;-46
2023/06/09 00:55:26;;;;;;;;;;;;;;;22.42;56.24;100622.88;7399582;19;1185;-46
2023/06/09 00:57:55;;;;;;;;;;;;;;;22.37;56.46;100627.91;7399632;19;1238;-46
2023/06/09 01:00:26;;;;;;;;;;;;;;;;;;7397109;19;1841;-46
2023/06/09 01:02:56;;;;;;;;;;;;;;;22.43;56.38;100629.97;7400369;19;1624;-46
2023/06/09 01:05:25;;;;;;;;;;;;;;;22.37;56.44;100625.22;7399603;19;1730;-46
2023/06/09 01:07:58;;;;;;;;;;;;;;;22.31;56.24;100610.53;7400066;19;1416;-46
2023/06/09 01:10:28;;;;;;;;;;;;;;;22.20;56.52;100614.34;7400839;19;1043;-46
2023/06/09 01:13:00;;;;;;;;;;;;;;;22.19;56.61;100623.41;7399824;19;1858;-46
2023/06/09 01:15:30;;;;;;;;;;;;;;;22.22;56.76;100620.41;7399939;19;1798;-46
2023/06/09 01:18:00;;;;;;;;;;;;;;;22.31;56.66;100642.03;7399334;19;1796;-47
2023/06/09 01:20:31;;;;;;;;;;;;;;;22.28;56.47;100631.56;7397491;19;1892;-46
2023/06/09 01:23:08;;;;;;;;;;;;;;;22.29;56.70;100630.56;7398752;19;1282;-46
2023/06/09 01:25:41;;;;;;;;;;;;;;;22.28;56.39;100612.72;7396551;19;1687;-46
2023/06/09 01:28:11;;;;;;;;;;;;;;;22.21;56.69;100624.09;7398425;19;1478;-46
2023/06/09 01:30:41;;;;;;;;;;;;;;;22.19;56.39;100618.03;7398764;19;1722;-46
2023/06/09 01:33:12;;;;;;;;;;;;;;;22.21;56.58;100634.03;7398992;19;1563;-46
2023/06/09 01:35:41;;;;;;;;;;;;;;;22.22;56.75;100633.00;7398949;19;1245;-46
2023/06/09 01:38:10;;;;;;;;;;;;;;;22.20;56.54;100625.13;7399142;19;1129;-46
2023/06/09 01:40:41;;;;;;;;;;;;;;;22.23;56.27;100624.78;7397339;19;1852;-47
2023/06/09 01:43:09;;;;;;;;;;;;;;;22.19;56.63;100628.81;7398841;19;1937;-46
2023/06/09 01:45:37;;;;;;;;;;;;;;;22.07;56.95;100630.09;7397883;19;1959;-46
2023/06/09 01:48:10;;;;;;;;;;;;;;;22.26;56.02;100628.19;7398537;19;1384;-46
2023/06/09 01:50:40;;;;;;;;;;;;;;;22.13;56.50;100626.75;7398257;19;1810;-50
2023/06/09 01:53:10;;;;;;;;;;;;;;;22.19;56.56;100634.19;7397313;19;1549;-46
2023/06/09 01:55:43;;;;;;;;;;;;;;;22.17;56.27;100633.50;7396596;19;1805;-46
2023/06/09 01:58:17;;;;;;;;;;;;;;;22.12;56.69;100611.59;7397194;19;1399;-46
2023/06/09 02:00:47;;;;;;;;;;;;;;;22.12;56.28;100616.97;7395388;19;1862;-47
2023/06/09 02:03:17;;;;;;;;;;;;;;;22.11;56.66;100609.06;7394460;19;1812;-47
2023/06/09 02:05:46;;;;;;;;;;;;;;;22.19;56.33;100618.03;7397463;19;1731;-47
2023/06/09 02:08:15;;;;;;;;;;;;;;;22.20;56.58;100624.25;7397361;19;1383;-47
2023/06/09 02:10:46;;;;;;;;;;;;;;;22.10;56.59;100624.38;7398084;19;1143;-46
2023/06/09 02:13:14;;;;;;;;;;;;;;;22.12;56.52;100629.59;7397190;19;1287;-46
2023/06/09 02:15:45;;;;;;;;;;;;;;;22.08;56.55;100626.38;7396562;19;1269;-46
2023/06/09 02:18:15;;;;;;;;;;;;;;;22.01;56.75;100636.09;7397521;19;1614;-46
2023/06/09 02:20:44;;;;;;;;;;;;;;;22.08;56.55;100639.00;7394419;19;1847;-46
2023/06/09 02:23:13;;;;;;;;;;;;;;;22.13;56.28;100634.00;7397399;19;1843;-46
2023/06/09 02:25:41;;;;;;;;;;;;;;;22.02;56.62;100632.41;7394865;19;1186;-49
2023/06/09 02:28:13;;;;;;;;;;;;;;;22.06;56.52;100639.16;7396405;19;1588;-46
2023/06/09 02:30:42;;;;;;;;;;;;;;;22.07;56.54;100632.78;7396890;19;1248;-46
2023/06/09 02:33:11;;;;;;;;;;;;;;;22.10;56.17;100651.28;7396705;19;1249;-46
2023/06/09 02:35:39;;;;;;;;;;;;;;;22.10;56.06;100645.91;7394834;19;1477;-46
2023/06/09 02:38:08;;;;;;;;;;;;;;;22.09;56.20;100654.16;7397492;19;1917;-46
2023/06/09 02:40:36;;;;;;;;;;;;;;;22.04;56.22;100651.94;7396272;19;1864;-46
2023/06/09 02:43:04;;;;;;;;;;;;;;;21.94;56.64;100646.66;7395859;19;1526;-46
2023/06/09 02:45:35;;;;;;;;;;;;;;;21.88;56.69;100666.13;7397159;19;1754;-46
2023/06/09 02:48:04;;;;;;;;;;;;;;;21.87;56.70;100655.53;7397312;19;1842;-46
2023/06/09 02:50:32;;;;;;;;;;;;;;;21.95;56.23;100656.44;7395340;19;1395;-46
2023/06/09 02:53:00;;;;;;;;;;;;;;;21.95;56.30;100658.28;7395682;19;1844;-46
2023/06/09 02:55:28;;;;;;;;;;;;;;;22.00;56.39;100664.88;7394856;19;1396;-46
2023/06/09 02:57:57;;;;;;;;;;;;;;;21.93;56.60;100668.38;7394124;19;1380;-46
2023/06/09 03:00:25;;;;;;;;;;;;;;;21.94;56.23;100664.66;7394821;19;1859;-46
2023/06/09 03:02:57;;;;;;;;;;;;;;;22.00;56.27;100661.31;7396451;19;1478;-46
2023/06/09 03:05:25;;;;;;;;;;;;;;;22.00;56.25;100672.09;7394313;19;1390;-46
2023/06/09 03:07:53;;;;;;;;;;;;;;;21.94;56.27;100676.25;7395421;19;1535;-46
2023/06/09 03:10:22;;;;;;;;;;;;;;;22.00;56.24;100664.03;7396002;19;1237;-46
2023/06/09 03:12:50;;;;;;;;;;;;;;;22.02;56.33;100670.09;7395233;19;1592;-46
2023/06/09 03:15:18;;;;;;;;;;;;;;;21.96;56.34;100681.50;7402124;19;1473;-46
2023/06/09 03:17:47;;;;;;;;;;;;;;;21.96;56.07;100665.34;7403285;19;1481;-46
2023/06/09 03:20:19;;;;;;;;;;;;;;;22.04;56.01;100662.69;7401035;19;1859;-46
2023/06/09 03:22:48;;;;;;;;;;;;;;;21.99;55.96;100671.25;7403157;19;1498;-46
2023/06/09 03:25:19;;;;;;;;;;;;;;;21.95;55.97;100672.59;7398824;19;1704;-46
2023/06/09 03:27:47;;;;;;;;;;;;;;;22.05;56.14;100669.78;7401766;19;1249;-46
2023/06/09 03:30:15;;;;;;;;;;;;;;;22.05;55.98;100676.00;7403097;19;1111;-46
2023/06/09 03:32:44;;;;;;;;;;;;;;;22.00;55.99;100672.97;7402185;19;1494;-47
2023/06/09 03:35:12;;;;;;;;;;;;;;;22.21;55.68;100688.75;7402338;19;1578;-46
2023/06/09 03:37:43;;;;;;;;;;;;;;;22.19;55.52;100669.19;7402351;19;1625;-46
2023/06/09 03:40:12;;;;;;;;;;;;;;;22.20;56.02;100679.00;7399543;19;1844;-47
2023/06/09 03:42:40;;;;;;;;;;;;;;;22.26;55.58;100679.38;7401884;19;1587;-46
2023/06/09 03:45:09;;;;;;;;;;;;;;;22.34;55.24;100668.63;7402479;19;1549;-46
2023/06/09 03:47:37;;;;;;;;;;;;;;;22.38;54.77;100680.78;7402837;19;1136;-46
2023/06/09 03:50:06;;;;;;;;;;;;;;;22.32;55.20;100692.19;7401774;19;1878;-46
2023/06/09 03:52:35;;;;;;;;;;;;;;;22.33;55.20;100696.59;7401819;19;1273;-46
2023/06/09 03:55:06;;;;;;;;;;;;;;;22.32;55.25;100686.81;7401645;19;1151;-46
2023/06/09 03:57:34;;;;;;;;;;;;;;;;;;7399926;19;1280;-46
2023/06/09 04:00:03;;;;;;;;;;;;;;;22.35;54.97;100681.13;7401359;19;1841;-47
2023/06/09 04:02:31;;;;;;;;;;;;;;;22.37;55.35;100695.28;7401441;19;1861;-46
2023/06/09 04:04:59;;;;;;;;;;;;;;;22.33;55.37;100693.91;7401588;19;1506;-46
2023/06/09 04:07:29;;;;;;;;;;;;;;;22.40;55.46;100700.31;7402056;19;1508;-46
2023/06/09 04:09:58;;;;;;;;;;;;;;;22.38;55.59;100705.03;7401625;19;1363;-46
2023/06/09 04:12:29;;;;;;;;;;;;;;;22.39;55.64;100693.25;7400793;19;1690;-46
2023/06/09 04:14:59;;;;;;;;;;;;;;;22.46;55.18;100691.59;7400815;19;1281;-46
2023/06/09 04:17:27;;;;;;;;;;;;;;;22.46;55.37;100705.06;7401388;19;1548;-46
2023/06/09 04:19:55;;;;;;;;;;;;;;;22.51;55.29;100689.28;7400827;19;1850;-46
2023/06/09 04:22:24;;;;;;;;;;;;;;;22.51;55.23;100691.16;7401815;19;1675;-46
2023/06/09 04:24:52;;;;;;;;;;;;;;;22.56;55.23;100684.28;7397260;19;1805;-46
2023/06/09 04:27:21;;;;;;;;;;;;;;;22.63;55.12;100700.63;7401526;19;1031;-46
2023/06/09 04:29:52;;;;;;;;;;;;;;;22.56;55.38;100708.53;7401430;19;1901;-46
2023/06/09 04:32:21;;;;;;;;;;;;;;;22.59;55.25;100707.34;7400661;19;1872;-46
2023/06/09 04:34:49;;;;;;;;;;;;;;;22.69;55.35;100715.31;7401904;19;1734;-46
2023/06/09 04:37:18;;;;;;;;;;;;;;;22.61;55.38;100714.25;7401510;19;1023;-46
2023/06/09 04:39:47;;;;;;;;;;;;;;;22.54;55.95;100724.00;7400190;19;1849;-47
2023/06/09 04:42:19;;;;;;;;;;;;;;;22.48;55.98;100724.63;7401193;19;1738;-46
2023/06/09 04:44:47;;;;;;;;;;;;;;;22.41;56.56;100723.59;7400681;19;1511;-46
2023/06/09 04:47:20;;;;;;;;;;;;;;;22.57;56.22;100706.66;7400257;19;1514;-47
2023/06/09 04:49:49;;;;;;;;;;;;;;;22.75;55.75;100720.06;7396232;19;1461;-46
2023/06/09 04:52:20;;;;;;;;;;;;;;;22.82;55.61;100726.50;7398611;19;1373;-47
2023/06/09 04:54:49;;;;;;;;;;;;;;;22.84;55.59;100719.94;7399128;19;1429;-47
2023/06/09 04:57:17;;;;;;;;;;;;;;;22.80;55.65;100717.72;7399138;19;1626;-47
2023/06/09 04:59:46;;;;;;;;;;;;;;;22.73;56.01;100708.59;7398515;19;1858;-49
2023/06/09 05:02:15;;;;;;;;;;;;;;;22.75;56.25;100712.81;7398798;19;1261;-47
2023/06/09 05:04:45;;;;;;;;;;;;;;;22.73;56.52;100722.91;7399526;19;1846;-47
2023/06/09 05:07:14;;;;;;;;;;;;;;;22.82;56.59;100713.03;7397711;19;1413;-46
2023/06/09 05:09:42;;;;;;;;;;;;;;;22.94;55.78;100710.84;7393338;19;1237;-47
2023/06/09 05:12:11;;;;;;;;;;;;;;;22.52;57.45;100717.06;7399672;19;1548;-48
2023/06/09 05:14:39;;;;;;;;;;;;;;;22.70;56.95;100695.44;7399972;19;1228;-47
2023/06/09 05:17:07;;;;;;;;;;;;;;;22.46;58.39;100707.78;7397392;19;1166;-47
2023/06/09 05:19:36;;;;;;;;;;;;;;;22.70;57.36;100720.56;7396161;19;1855;-47
2023/06/09 05:22:06;;;;;;;;;;;;;;;22.75;56.97;100714.66;7392503;19;1437;-47
2023/06/09 05:24:35;;;;;;;;;;;;;;;22.80;57.02;100715.00;7393094;19;1591;-47
2023/06/09 05:27:03;;;;;;;;;;;;;;;22.84;56.95;100709.16;7390645;19;1285;-47
2023/06/09 05:29:31;;;;;;;;;;;;;;;22.90;56.75;100710.38;7395097;19;1517;-47
2023/06/09 05:32:00;;;;;;;;;;;;;;;22.88;56.88;100692.63;7393392;19;1952;-47
2023/06/09 05:34:29;;;;;;;;;;;;;;;22.89;56.71;100724.84;7396560;19;1622;-47
2023/06/09 05:36:58;;;;;;;;;;;;;;;22.84;57.07;100708.31;7396502;19;1432;-46
2023/06/09 05:39:29;;;;;;;;;;;;;;;22.94;56.71;100705.47;7391472;19;1383;-47
2023/06/09 05:41:57;;;;;;;;;;;;;;;22.86;57.01;100705.44;7390107;19;1836;-46
2023/06/09 05:44:25;;;;;;;;;;;;;;;22.96;57.02;100696.22;7393624;19;1405;-47
2023/06/09 05:46:53;;;;;;;;;;;;;;;22.79;57.42;100706.09;7392692;19;1540;-47
2023/06/09 05:49:22;;;;;;;;;;;;;;;22.75;57.46;100687.72;7392860;19;1385;-48
2023/06/09 05:51:50;;;;;;;;;;;;;;;22.66;58.01;100684.16;7393373;19;1422;-47
2023/06/09 05:54:18;;;;;;;;;;;;;;;22.88;57.15;100692.63;7395161;19;1007;-47
2023/06/09 05:56:51;;;;;;;;;;;;;;;23.02;56.93;100681.28;7394600;19;1850;-46
2023/06/09 05:59:21;;;;;;;;;;;;;;;22.87;57.80;100697.19;7392498;19;1529;-47
2023/06/09 06:01:49;;;;;;;;;;;;;;;22.63;58.49;100692.53;7394447;19;1888;-47
2023/06/09 06:04:17;;;;;;;;;;;;;;;22.82;57.89;100696.84;7396157;19;1453;-49
2023/06/09 06:06:46;;;;;;;;;;;;;;;22.66;58.42;100696.75;7395056;19;1438;-47
2023/06/09 06:09:14;;;;;;;;;;;;;;;22.18;58.38;100613.66;7397620;19;1754;-47
2023/06/09 06:11:43;;;;;;;;;;;;;;;22.85;57.81;100704.59;7397388;19;1630;-47
2023/06/09 06:14:14;;;;;;;;;;;;;;;22.95;57.70;100699.91;7396625;19;1535;-48
2023/06/09 06:16:42;;;;;;;;;;;;;;;22.80;57.71;100702.41;7397006;19;1249;-47
2023/06/09 06:19:11;;;;;;;;;;;;;;;22.96;57.45;100690.84;7396547;19;1209;-49
2023/06/09 06:21:41;;;;;;;;;;;;;;;22.75;58.32;100703.88;7396659;19;1860;-48
2023/06/09 06:24:09;;;;;;;;;;;;;;;22.84;58.64;100682.19;7394807;19;1860;-48
2023/06/09 06:26:37;;;;;;;;;;;;;;;22.77;59.50;100700.00;7394983;19;1395;-47
2023/06/09 06:29:06;;;;;;;;;;;;;;;22.74;59.64;100689.56;7394824;19;1544;-46
2023/06/09 06:31:37;;;;;;;;;;;;;;;22.85;58.29;100688.44;7394043;19;1549;-47
2023/06/09 06:34:05;;;;;;;;;;;;;;;22.86;58.65;100690.13;7394594;19;1484;-47
2023/06/09 06:36:33;;;;;;;;;;;;;;;23.09;58.13;100692.25;7392136;19;1473;-46
2023/06/09 06:39:01;;;;;;;;;;;;;;;22.96;58.35;100690.84;7394971;19;1527;-48
2023/06/09 06:41:30;;;;;;;;;;;;;;;23.26;57.57;100691.28;7395162;19;1850;-47
2023/06/09 06:43:58;;;;;;;;;;;;;;;23.21;57.55;100674.72;7395306;19;1708;-46
2023/06/09 06:46:26;;;;;;;;;;;;;;;23.34;57.65;100695.84;7395078;19;1209;-47
2023/06/09 06:48:57;;;;;;;;;;;;;;;23.26;57.38;100696.69;7395462;19;1007;-48
2023/06/09 06:51:26;;;;;;;;;;;;;;;23.17;58.65;100703.06;7392733;19;1876;-47
2023/06/09 06:53:54;;;;;;;;;;;;;;;23.20;59.03;100689.25;7395212;19;1439;-46
2023/06/09 06:56:22;;;;;;;;;;;;;;;23.18;60.25;100702.06;7392067;19;1790;-47
2023/06/09 06:58:51;;;;;;;;;;;;;;;23.04;62.81;100692.75;7396864;19;1728;-47
2023/06/09 07:01:20;;;;;;;;;;;;;;;23.05;61.93;100689.03;7386646;19;1866;-48
2023/06/09 07:03:49;;;;;;;;;;;;;;;23.23;61.02;100687.03;7392707;19;1482;-47
2023/06/09 07:06:21;;;;;;;;;;;;;;;23.28;61.50;100683.00;7391889;19;1181;-47
2023/06/09 07:08:50;;;;;;;;;;;;;;;23.33;61.43;100686.91;7392635;19;1204;-46
2023/06/09 07:11:18;;;;;;;;;;;;;;;23.35;61.15;100690.28;7394225;19;1619;-46
2023/06/09 07:13:47;;;;;;;;;;;;;;;23.29;61.58;100682.84;7393008;19;1303;-46
2023/06/09 07:16:15;;;;;;;;;;;;;;;23.27;61.25;100682.16;7391746;19;1362;-46
2023/06/09 07:18:43;;;;;;;;;;;;;;;23.33;61.09;100676.09;7388421;19;1178;-47
2023/06/09 07:21:12;;;;;;;;;;;;;;;23.30;61.20;100671.06;7389003;19;1936;-47
2023/06/09 07:23:43;;;;;;;;;;;;;;;23.43;61.07;100682.19;7391211;19;1392;-47
2023/06/09 07:26:11;;;;;;;;;;;;;;;23.31;61.19;100683.53;7391034;19;1589;-47
2023/06/09 07:28:39;;;;;;;;;;;;;;;23.16;61.64;100677.09;7388567;19;1617;-47
2023/06/09 07:31:08;;;;;;;;;;;;;;;23.18;61.67;100683.19;7387794;19;1719;-46
2023/06/09 07:33:37;;;;;;;;;;;;;;;23.09;61.91;100660.72;7394140;19;1747;-46
2023/06/09 07:36:10;;;;;;;;;;;;;;;23.08;61.69;100672.53;7394266;19;1738;-47
2023/06/09 07:38:38;;;;;;;;;;;;;;;23.06;62.05;100676.38;7393615;19;1506;-49
2023/06/09 07:41:09;;;;;;;;;;;;;;;23.09;61.91;100662.56;7392155;19;1854;-46
2023/06/09 07:43:37;;;;;;;;;;;;;;;23.04;61.94;100679.25;7394086;19;1527;-47
2023/06/09 07:46:07;;;;;;;;;;;;;;;22.98;61.97;100667.25;7393303;19;1616;-46
2023/06/09 07:48:36;;;;;;;;;;;;;;;23.11;61.82;100677.56;7392821;19;1787;-47
2023/06/09 07:51:05;;;;;;;;;;;;;;;23.07;62.04;100653.81;7392844;19;1945;-46
2023/06/09 07:53:35;;;;;;;;;;;;;;;22.90;62.39;100664.53;7393986;19;1480;-46
2023/06/09 07:56:04;;;;;;;;;;;;;;;22.88;62.63;100649.50;7394501;19;1514;-46
2023/06/09 07:58:36;;;;;;;;;;;;;;;22.90;62.48;100655.56;7392229;19;1720;-46
2023/06/09 08:01:04;;;;;;;;;;;;;;;22.83;62.84;100658.09;7395532;19;1844;-49
2023/06/09 08:03:34;;;;;;;;;;;;;;;22.80;62.94;100656.56;7401410;19;1447;-46
2023/06/09 08:06:03;;;;;;;;;;;;;;;22.77;63.16;100659.56;7400996;19;1505;-46
2023/06/09 08:08:31;;;;;;;;;;;;;;;22.76;62.88;100657.91;7400684;19;1331;-46
2023/06/09 08:11:00;;;;;;;;;;;;;;;22.77;62.61;100656.88;7401180;19;1652;-46
2023/06/09 08:13:30;;;;;;;;;;;;;;;22.87;62.49;100653.22;7399288;19;1455;-46
2023/06/09 08:16:01;;;;;;;;;;;;;;;23.06;62.07;100657.50;7401881;19;1442;-46
2023/06/09 08:18:29;;;;;;;;;;;;;;;23.09;61.54;100654.47;7401816;19;1700;-46
2023/06/09 08:20:57;;;;;;;;;;;;;;;23.05;62.05;100650.44;7398918;19;1842;-46
2023/06/09 08:23:26;;;;;;;;;;;;;;;22.96;62.16;100652.22;7393263;19;1862;-51
2023/06/09 08:25:54;;;;;;;;;;;;;;;23.03;61.74;100655.97;7397100;19;1448;-49
2023/06/09 08:28:22;;;;;;;;;;;;;;;23.32;60.82;100641.22;7398318;19;1433;-49
2023/06/09 08:30:50;;;;;;;;;;;;;;;23.06;61.36;100652.97;7398313;19;1564;-50
2023/06/09 08:33:22;;;;;;;;;;;;;;;22.96;61.91;100661.16;7399517;19;1200;-50
2023/06/09 08:35:50;;;;;;;;;;;;;;;23.06;61.87;100646.72;7397041;19;1279;-50
2023/06/09 08:38:19;;;;;;;;;;;;;;;23.10;62.18;100648.94;7400420;19;1248;-50
2023/06/09 08:40:48;;;;;;;;;;;;;;;23.13;61.89;100642.34;7398248;19;1953;-50
2023/06/09 08:43:16;;;;;;;;;;;;;;;23.36;60.82;100654.19;7399477;19;1242;-50
2023/06/09 08:45:47;;;;;;;;;;;;;;;23.40;61.19;100649.31;7398132;19;1316;-49
2023/06/09 08:48:17;;;;;;;;;;;;;;;23.45;60.84;100643.41;7399521;19;1237;-50
2023/06/09 08:50:48;;;;;;;;;;;;;;;23.45;60.75;100644.22;7398477;19;1226;-50
2023/06/09 08:53:16;;;;;;;;;;;;;;;23.35;61.14;100641.69;7398188;19;1484;-51
2023/06/09 08:55:46;;;;;;;;;;;;;;;23.19;61.26;100637.13;7397622;19;1499;-51
2023/06/09 08:58:16;;;;;;;;;;;;;;;23.07;62.07;100668.13;7398543;19;1614;-49
2023/06/09 09:00:44;;;;;;;;;;;;;;;23.06;61.98;100647.56;7398138;19;1845;-50
2023/06/09 09:03:12;;;;;;;;;;;;;;;23.18;61.71;100638.16;7398935;19;1539;-50
2023/06/09 09:05:40;;;;;;;;;;;;;;;23.12;62.28;100636.13;7397082;19;1434;-50
2023/06/09 09:08:12;;;;;;;;;;;;;;;23.18;61.78;100651.63;7397394;19;1511;-51
2023/06/09 09:10:42;;;;;;;;;;;;;;;23.15;62.20;100637.63;7396996;19;1794;-47
2023/06/09 09:13:11;;;;;;;;;;;;;;;23.25;61.61;100637.47;7396720;19;1628;-47
2023/06/09 09:15:41;;;;;;;;;;;;;;;23.21;61.44;100645.06;7395453;19;1563;-47
2023/06/09 09:18:13;;;;;;;;;;;;;;;23.44;60.99;100623.69;7390768;19;1264;-48
2023/06/09 09:20:42;;;;;;;;;;;;;;;23.39;61.40;100634.13;7397927;19;1467;-47
2023/06/09 09:23:13;;;;;;;;;;;;;;;23.50;60.85;100605.97;7394383;19;1857;-47
2023/06/09 09:25:41;;;;;;;;;;;;;;;23.51;60.76;100623.84;7394694;19;1465;-47
2023/06/09 09:28:11;;;;;;;;;;;;;;;23.43;60.66;100632.75;7394562;19;1576;-48
2023/06/09 09:30:42;;;;;;;;;;;;;;;23.49;60.15;100609.66;7395986;19;1458;-47
2023/06/09 09:33:11;;;;;;;;;;;;;;;23.53;60.04;100605.63;7398360;19;1826;-47
2023/06/09 09:35:40;;;;;;;;;;;;;;;23.50;60.04;100609.50;7399718;19;968;-48
2023/06/09 09:38:16;;;;;;;;;;;;;;;23.66;59.51;100622.16;7397481;19;1333;-47
2023/06/09 09:40:46;;;;;;;;;;;;;;;23.60;59.24;100615.56;7396464;19;1533;-47
2023/06/09 09:43:15;;;;;;;;;;;;;;;23.59;59.21;100621.13;7394663;19;1854;-47
2023/06/09 09:45:45;;;;;;;;;;;;;;;23.54;59.32;100618.13;7397815;19;1844;-47
2023/06/09 09:48:14;;;;;;;;;;;;;;;23.48;59.41;100610.69;7395989;19;1499;-47
2023/06/09 09:50:44;;;;;;;;;;;;;;;23.38;59.32;100618.94;7394122;19;1649;-47
2023/06/09 09:53:15;;;;;;;;;;;;;;;23.21;59.78;100616.22;7391759;19;1629;-47
2023/06/09 09:55:45;;;;;;;;;;;;;;;23.30;59.88;100606.31;7390715;19;1509;-48
2023/06/09 09:58:14;;;;;;;;;;;;;;;23.30;59.81;100611.69;7391136;19;1658;-47
2023/06/09 10:00:44;;;;;;;;;;;;;;;23.37;59.39;100615.38;7392187;19;1477;-47
2023/06/09 10:03:17;;;;;;;;;;;;;;;23.39;59.63;100605.25;7386458;19;1842;-47
2023/06/09 10:05:46;;;;;;;;;;;;;;;23.42;59.24;100599.56;7390307;19;1146;-47
2023/06/09 10:08:21;;;;;;;;;;;;;;;23.38;59.57;100600.91;7396425;19;1072;-47
2023/06/09 10:10:50;;;;;;;;;;;;;;;23.36;59.89;100594.81;7395939;19;1168;-47
2023/06/09 10:13:18;;;;;;;;;;;;;;;23.26;59.87;100598.69;7394997;19;1512;-47
2023/06/09 10:15:47;;;;;;;;;;;;;;;23.40;59.35;100596.19;7394477;19;1237;-47
2023/06/09 10:18:15;;;;;;;;;;;;;;;23.48;59.54;100603.44;7395239;19;1612;-47
2023/06/09 10:20:44;;;;;;;;;;;;;;;23.39;59.36;100599.03;7395709;19;1531;-47
2023/06/09 10:23:12;;;;;;;;;;;;;;;23.26;59.21;100596.00;7387041;19;1865;-47
2023/06/09 10:25:44;;;;;;;;;;;;;;;23.31;59.10;100586.38;7389477;19;1480;-47
2023/06/09 10:28:13;;;;;;;;;;;;;;;23.20;59.22;100587.56;7390284;19;1719;-47
2023/06/09 10:30:41;;;;;;;;;;;;;;;23.51;58.87;100596.84;7390277;19;1285;-47
2023/06/09 10:33:12;;;;;;;;;;;;;;;23.48;59.25;100586.41;7391885;19;1391;-47
2023/06/09 10:35:41;;;;;;;;;;;;;;;23.25;59.66;100578.97;7393290;19;987;-47
2023/06/09 10:38:24;;;;;;;;;;;;;;;22.88;60.49;100585.66;7393776;19;990;-47
2023/06/09 10:41:00;;;;;;;;;;;;;;;22.62;60.00;100580.34;7395989;19;1056;-47
2023/06/09 10:43:36;;;;;;;;;;;;;;;22.79;59.76;100576.69;7394225;19;1834;-46
2023/06/09 10:46:04;;;;;;;;;;;;;;;22.76;60.78;100574.34;7395328;19;1498;-46
2023/06/09 10:48:42;;;;;;;;;;;;;;;23.03;59.82;100586.69;7396331;19;1903;-46
2023/06/09 10:51:26;;;;;;;;;;;;;;;22.89;60.01;100570.31;7395517;19;1869;-47
2023/06/09 10:54:09;;;;;;;;;;;;;;;22.82;60.22;100570.97;7395142;19;1874;-46
2023/06/09 10:56:41;;;;;;;;;;;;;;;22.81;60.40;100585.44;7392303;19;1839;-46
2023/06/09 10:59:30;;;;;;;;;;;;;;;22.83;60.32;100566.41;7391559;19;1382;-46
2023/06/09 11:02:15;;;;;;;;;;;;;;;22.86;60.83;100559.84;7390198;19;2252;-47
2023/06/09 11:04:52;;;;;;;;;;;;;;;22.94;60.66;100558.03;7394363;19;1535;-48
2023/06/09 11:07:21;;;;;;;;;;;;;;;22.95;60.63;100548.91;7394686;19;1913;-47
2023/06/09 11:10:04;;;;;;;;;;;;;;;23.00;60.61;100543.88;7391378;19;1325;-47
2023/06/09 11:12:46;;;;;;;;;;;;;;;22.96;60.65;100538.94;7394532;19;1738;-47
2023/06/09 11:15:15;;;;;;;;;;;;;;;23.06;60.77;100539.69;7391276;19;1412;-47
2023/06/09 11:17:44;;;;;;;;;;;;;;;22.97;60.74;100536.09;7394144;19;1296;-47
2023/06/09 11:20:14;;;;;;;;;;;;;;;22.92;60.53;100532.22;7393066;19;1396;-46
2023/06/09 11:22:58;;;;;;;;;;;;;;;22.92;60.56;100540.31;7392612;19;1848;-47
2023/06/09 11:25:37;;;;;;;;;;;;;;;22.93;60.71;100537.44;7391394;19;1862;-47
2023/06/09 11:28:29;;;;;;;;;;;;;;;22.86;60.86;100506.78;7392388;19;1298;-46
2023/06/09 11:31:04;;;;;;;;;;;;;;;22.86;61.01;100512.19;7392274;19;1616;-47
2023/06/09 11:33:42;;;;;;;;;;;;;;;22.88;61.11;100517.38;7393638;19;1493;-47
2023/06/09 11:36:12;;;;;;;;;;;;;;;22.86;60.98;100512.19;7399568;19;1613;-46
2023/06/09 11:38:40;;;;;;;;;;;;;;;22.89;61.16;100519.06;7401371;19;1229;-46
2023/06/09 11:41:11;;;;;;;;;;;;;;;22.89;60.94;100517.22;6882313;19;9999900;-47
2023/06/09 11:43:40;;;;;;;;;;;;;;;22.98;60.83;100518.09;7388987;19;1842;-46
2023/06/09 11:46:11;;;;;;;;;;;;;;;23.28;60.49;100511.19;7393256;19;1916;-47
2023/06/09 11:48:39;;;;;;;;;;;;;;;23.11;60.37;100526.53;7395451;19;1360;-47
2023/06/09 11:51:07;;;;;;;;;;;;;;;23.07;60.72;100508.16;7394011;19;1727;-46
2023/06/09 11:53:38;;;;;;;;;;;;;;;22.97;61.27;100501.03;7392429;19;1709;-47
2023/06/09 11:56:07;;;;;;;;;;;;;;;22.95;61.21;100491.44;7394954;19;1615;-46
2023/06/09 11:58:36;;;;;;;;;;;;;;;23.01;61.36;100498.84;7394645;19;1245;-47
2023/06/09 12:01:04;;;;;;;;;;;;;;;22.92;61.29;100511.50;7393624;19;1732;-46
2023/06/09 12:03:38;;;;;;;;;;;;;;;22.99;61.31;100501.72;7392307;19;1861;-47
2023/06/09 12:06:06;;;;;;;;;;;;;;;22.98;61.09;100505.44;7392648;19;1744;-46
2023/06/09 12:08:34;;;;;;;;;;;;;;;22.96;61.03;100475.09;7394698;19;1245;-47
2023/06/09 12:11:03;;;;;;;;;;;;;;;23.00;61.03;100500.72;7393680;19;1740;-47
2023/06/09 12:13:31;;;;;;;;;;;;;;;23.04;60.91;100477.00;7393590;19;1579;-46
2023/06/09 12:16:03;;;;;;;;;;;;;;;23.06;60.77;100490.28;7393478;19;1501;-46
2023/06/09 12:18:31;;;;;;;;;;;;;;;23.07;60.88;100475.78;7391291;19;1625;-47
2023/06/09 12:21:02;;;;;;;;;;;;;;;23.02;61.05;100485.25;7393102;19;1634;-47
2023/06/09 12:23:30;;;;;;;;;;;;;;;23.13;60.99;100485.91;7389751;19;1846;-47
2023/06/09 12:25:59;;;;;;;;;;;;;;;23.10;60.80;100475.44;7393869;19;1608;-47
2023/06/09 12:28:29;;;;;;;;;;;;;;;23.08;60.79;100475.63;7392940;19;1206;-47
2023/06/09 12:30:58;;;;;;;;;;;;;;;23.05;61.21;100464.34;7391488;19;1560;-47
2023/06/09 12:33:29;;;;;;;;;;;;;;;23.01;61.23;100483.50;7391965;19;1574;-48
2023/06/09 12:35:57;;;;;;;;;;;;;;;23.00;61.30;100484.53;7393082;19;1526;-47
2023/06/09 12:38:29;;;;;;;;;;;;;;;23.03;61.45;100469.91;7390920;19;1447;-46
2023/06/09 12:40:59;;;;;;;;;;;;;;;23.10;60.92;100468.22;7392716;19;2527;-47
2023/06/09 12:43:29;;;;;;;;;;;;;;;23.10;61.34;100476.31;7391656;19;1858;-47
2023/06/09 12:45:57;;;;;;;;;;;;;;;23.09;61.14;100462.97;7391149;19;1830;-47
2023/06/09 12:48:26;;;;;;;;;;;;;;;23.07;61.22;100470.41;7392017;19;1825;-47
2023/06/09 12:50:58;;;;;;;;;;;;;;;23.14;61.10;100456.06;7392781;19;1661;-46
2023/06/09 12:53:29;;;;;;;;;;;;;;;23.11;61.11;100452.88;7391683;19;1685;-47
2023/06/09 12:55:57;;;;;;;;;;;;;;;23.12;61.24;100446.44;7393006;19;1564;-46
2023/06/09 12:58:25;;;;;;;;;;;;;;;22.95;60.52;100457.22;7391272;19;1744;-46
2023/06/09 13:00:53;;;;;;;;;;;;;;;22.79;61.19;100436.50;7394366;19;1454;-47